Liberia, Costa Rica

5:45 PM CST on August 03, 2015 (GMT -0600)
Daniel Oduber Quiros International | | Change Station
CLOSE
Current Station
Airport
Location: Liberia,
Elevation: 262 ft
Nearby Weather Stations

Elev 262 ft 10.59 °N, 85.54 °W | Updated 45 minutes ago

Partly Cloudy
Partly Cloudy
90 °F
Feels Like 92 °F
N
20
Wind Variable Wind from East

Today
High -- | Low -- °F
--% Chance of Precip.
Yesterday
High -- | Low -- °F
Precip. -- in
5:31 AM 6:05 PM
Waning Gibbous, 83% visible
Pressure 29.71 in
Visibility 6.2 miles
Clouds Few 3500 ft
Heat Index 92 °F
Dew Point 66 °F
Humidity 46%
Rainfall 0.00 in
Snow Depth Not available.
UV 1 out of 12
Pollen Not available.
Air Quality Not available.
Flu Activity Not available.
METAR MRLB 032300Z 08017KT 9999 FEW035 32/19 A2971

More Conditions Fewer Conditions

Pressure 29.71 in
Visibility 6.2 miles
Clouds Few 3500 ft
Heat Index 92 °F
Dew Point 66 °F
Humidity 46%
Rainfall 0.00 in
Snow Depth Not available.
UV 1 out of 12
Pollen Not available.
Air Quality Not available.
Flu Activity Not available.
METAR MRLB 032300Z 08017KT 9999 FEW035 32/19 A2971

More Conditions Fewer Conditions

10-Day Weather Forecast

×

Almanac

Astronomy

Aug. 03, 2015 Rise Set
Actual Time
Civil Twilight
Nautical Twilight
Astronomical Twilight
Moon
Length of Visible Light
Length of Day
Tomorrow will be .
, % of the Moon is Illuminated

Today's Extremes

Country Highs Country Lows

Community

WunderPhotos

Upload Photos

1,843,791 photos uploaded!

WunderBlogs® & News

Nearby

Air Quality

  Air Quality AQ Index Pollutant
Not available.

Snow Depth

Station Depth Elevation

Earthquake Activity

City Distance Mag. Time & Date
Minimum magnitude displayed is 2.5.

Coastal Water Temperatures

Place Temperature

Stations

Nearby Weather Stations

Station Location Temp. Windchill Dew Point Humidity Wind Precip. Elev Updated Type